sensor_id;sensor_type;location;lat;lon;timestamp;P1;durP1;ratioP1;P2;durP2;ratioP2
8626;SDS011;4351;51.422;6.794;2023-12-28T00:00:40;2.90;;;1.70;;
8626;SDS011;4351;51.422;6.794;2023-12-28T00:03:08;2.87;;;1.80;;
8626;SDS011;4351;51.422;6.794;2023-12-28T00:05:36;3.73;;;1.80;;
8626;SDS011;4351;51.422;6.794;2023-12-28T00:08:05;3.23;;;1.90;;
8626;SDS011;4351;51.422;6.794;2023-12-28T00:10:33;5.03;;;1.97;;
8626;SDS011;4351;51.422;6.794;2023-12-28T00:13:00;3.27;;;1.70;;
8626;SDS011;4351;51.422;6.794;2023-12-28T00:15:28;3.03;;;2.10;;
8626;SDS011;4351;51.422;6.794;2023-12-28T00:17:56;3.07;;;1.73;;
8626;SDS011;4351;51.422;6.794;2023-12-28T00:20:24;3.87;;;2.00;;
8626;SDS011;4351;51.422;6.794;2023-12-28T00:22:52;2.97;;;1.90;;
8626;SDS011;4351;51.422;6.794;2023-12-28T00:25:21;4.07;;;2.27;;
8626;SDS011;4351;51.422;6.794;2023-12-28T00:27:48;2.60;;;1.80;;
8626;SDS011;4351;51.422;6.794;2023-12-28T00:30:17;2.43;;;1.70;;
8626;SDS011;4351;51.422;6.794;2023-12-28T00:32:45;3.30;;;1.87;;
8626;SDS011;4351;51.422;6.794;2023-12-28T00:35:13;3.83;;;1.90;;
8626;SDS011;4351;51.422;6.794;2023-12-28T00:37:40;4.07;;;1.87;;
8626;SDS011;4351;51.422;6.794;2023-12-28T00:40:10;3.03;;;2.00;;
8626;SDS011;4351;51.422;6.794;2023-12-28T00:42:39;2.50;;;1.93;;
8626;SDS011;4351;51.422;6.794;2023-12-28T00:45:08;3.53;;;2.10;;
8626;SDS011;4351;51.422;6.794;2023-12-28T00:47:35;2.53;;;1.77;;
8626;SDS011;4351;51.422;6.794;2023-12-28T00:50:03;3.07;;;1.97;;
8626;SDS011;4351;51.422;6.794;2023-12-28T00:52:31;2.47;;;1.73;;
8626;SDS011;4351;51.422;6.794;2023-12-28T00:54:59;3.70;;;2.03;;
8626;SDS011;4351;51.422;6.794;2023-12-28T00:57:26;4.07;;;1.97;;
8626;SDS011;4351;51.422;6.794;2023-12-28T00:59:56;3.17;;;1.70;;
8626;SDS011;4351;51.422;6.794;2023-12-28T01:02:23;4.97;;;1.90;;
8626;SDS011;4351;51.422;6.794;2023-12-28T01:04:51;3.60;;;1.97;;
8626;SDS011;4351;51.422;6.794;2023-12-28T01:07:18;3.50;;;1.90;;
8626;SDS011;4351;51.422;6.794;2023-12-28T01:09:47;2.93;;;1.87;;
8626;SDS011;4351;51.422;6.794;2023-12-28T01:12:15;3.27;;;1.90;;
8626;SDS011;4351;51.422;6.794;2023-12-28T01:14:43;2.83;;;1.80;;
8626;SDS011;4351;51.422;6.794;2023-12-28T01:17:11;3.37;;;1.93;;
8626;SDS011;4351;51.422;6.794;2023-12-28T01:19:39;2.60;;;1.73;;
8626;SDS011;4351;51.422;6.794;2023-12-28T01:22:07;2.40;;;1.80;;
8626;SDS011;4351;51.422;6.794;2023-12-28T01:24:35;3.90;;;2.00;;
8626;SDS011;4351;51.422;6.794;2023-12-28T01:27:04;2.53;;;2.00;;
8626;SDS011;4351;51.422;6.794;2023-12-28T01:29:32;3.20;;;1.70;;
8626;SDS011;4351;51.422;6.794;2023-12-28T01:32:03;3.07;;;1.77;;
8626;SDS011;4351;51.422;6.794;2023-12-28T01:34:32;2.70;;;2.00;;
8626;SDS011;4351;51.422;6.794;2023-12-28T01:37:00;2.67;;;2.00;;
8626;SDS011;4351;51.422;6.794;2023-12-28T01:39:27;2.80;;;1.90;;
8626;SDS011;4351;51.422;6.794;2023-12-28T01:41:55;3.20;;;2.00;;
8626;SDS011;4351;51.422;6.794;2023-12-28T01:44:24;2.10;;;1.70;;
8626;SDS011;4351;51.422;6.794;2023-12-28T01:46:52;3.20;;;1.87;;
8626;SDS011;4351;51.422;6.794;2023-12-28T01:49:20;3.13;;;1.90;;
8626;SDS011;4351;51.422;6.794;2023-12-28T01:51:50;4.13;;;2.20;;
8626;SDS011;4351;51.422;6.794;2023-12-28T01:54:18;3.30;;;1.93;;
8626;SDS011;4351;51.422;6.794;2023-12-28T01:56:46;2.90;;;2.03;;
8626;SDS011;4351;51.422;6.794;2023-12-28T01:59:14;2.33;;;1.80;;
8626;SDS011;4351;51.422;6.794;2023-12-28T02:01:42;2.83;;;1.80;;
8626;SDS011;4351;51.422;6.794;2023-12-28T02:04:10;3.20;;;1.90;;
8626;SDS011;4351;51.422;6.794;2023-12-28T02:06:38;3.27;;;1.97;;
8626;SDS011;4351;51.422;6.794;2023-12-28T02:09:07;4.13;;;2.10;;
8626;SDS011;4351;51.422;6.794;2023-12-28T02:11:35;4.83;;;2.10;;
8626;SDS011;4351;51.422;6.794;2023-12-28T02:14:03;4.73;;;1.90;;
8626;SDS011;4351;51.422;6.794;2023-12-28T02:16:32;4.23;;;2.10;;
8626;SDS011;4351;51.422;6.794;2023-12-28T02:19:03;2.67;;;1.90;;
8626;SDS011;4351;51.422;6.794;2023-12-28T02:21:35;3.87;;;1.90;;
8626;SDS011;4351;51.422;6.794;2023-12-28T02:24:04;4.47;;;2.10;;
8626;SDS011;4351;51.422;6.794;2023-12-28T02:26:33;4.97;;;2.07;;
8626;SDS011;4351;51.422;6.794;2023-12-28T02:29:00;5.13;;;2.27;;
8626;SDS011;4351;51.422;6.794;2023-12-28T02:31:31;3.13;;;2.00;;
8626;SDS011;4351;51.422;6.794;2023-12-28T02:34:03;4.47;;;2.00;;
8626;SDS011;4351;51.422;6.794;2023-12-28T02:36:32;5.00;;;1.90;;
8626;SDS011;4351;51.422;6.794;2023-12-28T02:39:02;3.80;;;2.00;;
8626;SDS011;4351;51.422;6.794;2023-12-28T02:41:32;3.40;;;2.00;;
8626;SDS011;4351;51.422;6.794;2023-12-28T02:44:00;3.03;;;1.60;;
8626;SDS011;4351;51.422;6.794;2023-12-28T02:46:28;3.50;;;2.10;;
8626;SDS011;4351;51.422;6.794;2023-12-28T02:48:56;2.80;;;2.13;;
8626;SDS011;4351;51.422;6.794;2023-12-28T02:51:25;2.20;;;1.90;;
8626;SDS011;4351;51.422;6.794;2023-12-28T02:53:53;3.37;;;1.80;;
8626;SDS011;4351;51.422;6.794;2023-12-28T02:56:21;4.50;;;2.50;;
8626;SDS011;4351;51.422;6.794;2023-12-28T02:58:50;3.63;;;2.23;;
8626;SDS011;4351;51.422;6.794;2023-12-28T03:01:17;3.27;;;2.10;;
8626;SDS011;4351;51.422;6.794;2023-12-28T03:03:45;5.20;;;1.90;;
8626;SDS011;4351;51.422;6.794;2023-12-28T03:06:13;4.57;;;2.10;;
8626;SDS011;4351;51.422;6.794;2023-12-28T03:08:41;6.00;;;2.17;;
8626;SDS011;4351;51.422;6.794;2023-12-28T03:11:08;4.03;;;2.10;;
8626;SDS011;4351;51.422;6.794;2023-12-28T03:13:36;4.43;;;2.03;;
8626;SDS011;4351;51.422;6.794;2023-12-28T03:16:05;3.67;;;1.80;;
8626;SDS011;4351;51.422;6.794;2023-12-28T03:18:34;3.30;;;2.20;;
8626;SDS011;4351;51.422;6.794;2023-12-28T03:21:02;4.33;;;2.00;;
8626;SDS011;4351;51.422;6.794;2023-12-28T03:23:29;4.80;;;2.43;;
8626;SDS011;4351;51.422;6.794;2023-12-28T03:25:57;4.63;;;2.17;;
8626;SDS011;4351;51.422;6.794;2023-12-28T03:28:25;4.40;;;2.30;;
8626;SDS011;4351;51.422;6.794;2023-12-28T03:30:52;3.07;;;2.17;;
8626;SDS011;4351;51.422;6.794;2023-12-28T03:33:21;5.73;;;2.20;;
8626;SDS011;4351;51.422;6.794;2023-12-28T03:35:49;5.57;;;2.47;;
8626;SDS011;4351;51.422;6.794;2023-12-28T03:38:18;5.40;;;2.37;;
8626;SDS011;4351;51.422;6.794;2023-12-28T03:40:47;4.90;;;2.23;;
8626;SDS011;4351;51.422;6.794;2023-12-28T03:43:16;5.57;;;2.30;;
8626;SDS011;4351;51.422;6.794;2023-12-28T03:45:44;3.33;;;2.30;;
8626;SDS011;4351;51.422;6.794;2023-12-28T03:48:12;4.03;;;2.33;;
8626;SDS011;4351;51.422;6.794;2023-12-28T03:50:41;3.63;;;2.47;;
8626;SDS011;4351;51.422;6.794;2023-12-28T03:53:09;4.37;;;2.40;;
8626;SDS011;4351;51.422;6.794;2023-12-28T03:55:37;4.73;;;2.43;;
8626;SDS011;4351;51.422;6.794;2023-12-28T03:58:05;3.43;;;2.27;;
8626;SDS011;4351;51.422;6.794;2023-12-28T04:00:32;4.47;;;2.30;;
8626;SDS011;4351;51.422;6.794;2023-12-28T04:03:03;3.77;;;2.07;;
8626;SDS011;4351;51.422;6.794;2023-12-28T04:05:31;7.07;;;2.17;;
8626;SDS011;4351;51.422;6.794;2023-12-28T04:08:00;3.80;;;2.50;;
8626;SDS011;4351;51.422;6.794;2023-12-28T04:10:28;3.73;;;2.53;;
8626;SDS011;4351;51.422;6.794;2023-12-28T04:12:56;3.20;;;2.20;;
8626;SDS011;4351;51.422;6.794;2023-12-28T04:15:25;4.07;;;2.30;;
8626;SDS011;4351;51.422;6.794;2023-12-28T04:17:53;6.53;;;2.27;;
8626;SDS011;4351;51.422;6.794;2023-12-28T04:20:22;3.40;;;2.30;;
8626;SDS011;4351;51.422;6.794;2023-12-28T04:22:50;5.80;;;2.50;;
8626;SDS011;4351;51.422;6.794;2023-12-28T04:25:19;6.13;;;2.73;;
8626;SDS011;4351;51.422;6.794;2023-12-28T04:27:47;5.00;;;2.37;;
8626;SDS011;4351;51.422;6.794;2023-12-28T04:30:16;5.40;;;2.40;;
8626;SDS011;4351;51.422;6.794;2023-12-28T04:32:44;5.00;;;2.63;;
8626;SDS011;4351;51.422;6.794;2023-12-28T04:35:11;7.17;;;2.20;;
8626;SDS011;4351;51.422;6.794;2023-12-28T04:37:39;5.20;;;2.30;;
8626;SDS011;4351;51.422;6.794;2023-12-28T04:40:07;4.40;;;2.40;;
8626;SDS011;4351;51.422;6.794;2023-12-28T04:42:37;5.90;;;2.10;;
8626;SDS011;4351;51.422;6.794;2023-12-28T04:45:05;3.93;;;2.00;;
8626;SDS011;4351;51.422;6.794;2023-12-28T04:47:34;3.83;;;2.40;;
8626;SDS011;4351;51.422;6.794;2023-12-28T04:50:02;3.87;;;2.00;;
8626;SDS011;4351;51.422;6.794;2023-12-28T04:52:30;4.33;;;2.00;;
8626;SDS011;4351;51.422;6.794;2023-12-28T04:54:58;4.60;;;2.40;;
8626;SDS011;4351;51.422;6.794;2023-12-28T04:57:26;3.03;;;2.23;;
8626;SDS011;4351;51.422;6.794;2023-12-28T04:59:56;5.67;;;2.30;;
8626;SDS011;4351;51.422;6.794;2023-12-28T05:02:23;3.90;;;2.23;;
8626;SDS011;4351;51.422;6.794;2023-12-28T05:04:51;4.23;;;2.13;;
8626;SDS011;4351;51.422;6.794;2023-12-28T05:07:19;3.80;;;2.20;;
8626;SDS011;4351;51.422;6.794;2023-12-28T05:09:47;4.97;;;2.13;;
8626;SDS011;4351;51.422;6.794;2023-12-28T05:12:15;5.00;;;1.90;;
8626;SDS011;4351;51.422;6.794;2023-12-28T05:14:42;3.43;;;1.97;;
8626;SDS011;4351;51.422;6.794;2023-12-28T05:17:12;4.00;;;1.90;;
8626;SDS011;4351;51.422;6.794;2023-12-28T05:19:39;5.50;;;2.03;;
8626;SDS011;4351;51.422;6.794;2023-12-28T05:22:07;2.53;;;1.77;;
8626;SDS011;4351;51.422;6.794;2023-12-28T05:24:37;3.90;;;2.10;;
8626;SDS011;4351;51.422;6.794;2023-12-28T05:27:05;4.77;;;1.90;;
8626;SDS011;4351;51.422;6.794;2023-12-28T05:29:33;5.03;;;1.80;;
8626;SDS011;4351;51.422;6.794;2023-12-28T05:32:01;4.43;;;2.10;;
8626;SDS011;4351;51.422;6.794;2023-12-28T05:34:30;4.87;;;2.20;;
8626;SDS011;4351;51.422;6.794;2023-12-28T05:36:58;3.27;;;1.90;;
8626;SDS011;4351;51.422;6.794;2023-12-28T05:39:26;3.67;;;2.10;;
8626;SDS011;4351;51.422;6.794;2023-12-28T05:41:53;5.13;;;2.10;;
8626;SDS011;4351;51.422;6.794;2023-12-28T05:44:21;4.23;;;2.33;;
8626;SDS011;4351;51.422;6.794;2023-12-28T05:46:49;5.50;;;2.20;;
8626;SDS011;4351;51.422;6.794;2023-12-28T05:49:18;3.50;;;1.90;;
8626;SDS011;4351;51.422;6.794;2023-12-28T05:51:48;4.57;;;1.90;;
8626;SDS011;4351;51.422;6.794;2023-12-28T05:54:16;5.73;;;2.20;;
8626;SDS011;4351;51.422;6.794;2023-12-28T05:56:43;3.30;;;1.80;;
8626;SDS011;4351;51.422;6.794;2023-12-28T05:59:11;3.70;;;2.17;;
8626;SDS011;4351;51.422;6.794;2023-12-28T06:01:41;5.20;;;2.13;;
8626;SDS011;4351;51.422;6.794;2023-12-28T06:04:09;4.23;;;2.00;;
8626;SDS011;4351;51.422;6.794;2023-12-28T06:06:37;6.97;;;2.20;;
8626;SDS011;4351;51.422;6.794;2023-12-28T06:09:06;7.37;;;2.20;;
8626;SDS011;4351;51.422;6.794;2023-12-28T06:11:34;5.57;;;2.00;;
8626;SDS011;4351;51.422;6.794;2023-12-28T06:14:02;3.93;;;2.00;;
8626;SDS011;4351;51.422;6.794;2023-12-28T06:16:29;3.90;;;1.80;;
8626;SDS011;4351;51.422;6.794;2023-12-28T06:18:59;4.83;;;1.70;;
8626;SDS011;4351;51.422;6.794;2023-12-28T06:21:27;5.83;;;2.00;;
8626;SDS011;4351;51.422;6.794;2023-12-28T06:23:58;2.87;;;1.70;;
8626;SDS011;4351;51.422;6.794;2023-12-28T06:26:26;4.97;;;2.10;;
8626;SDS011;4351;51.422;6.794;2023-12-28T06:28:54;6.93;;;2.30;;
8626;SDS011;4351;51.422;6.794;2023-12-28T06:31:22;7.30;;;2.33;;
8626;SDS011;4351;51.422;6.794;2023-12-28T06:33:50;3.13;;;1.77;;
8626;SDS011;4351;51.422;6.794;2023-12-28T06:36:19;6.00;;;2.17;;
8626;SDS011;4351;51.422;6.794;2023-12-28T06:38:46;6.33;;;1.83;;
8626;SDS011;4351;51.422;6.794;2023-12-28T06:41:14;4.07;;;1.90;;
8626;SDS011;4351;51.422;6.794;2023-12-28T06:43:43;4.30;;;1.97;;
8626;SDS011;4351;51.422;6.794;2023-12-28T06:46:11;5.63;;;1.87;;
8626;SDS011;4351;51.422;6.794;2023-12-28T06:48:38;4.47;;;1.83;;
8626;SDS011;4351;51.422;6.794;2023-12-28T06:51:08;4.63;;;1.90;;
8626;SDS011;4351;51.422;6.794;2023-12-28T06:53:35;5.03;;;2.10;;
8626;SDS011;4351;51.422;6.794;2023-12-28T06:56:03;4.43;;;1.90;;
8626;SDS011;4351;51.422;6.794;2023-12-28T06:58:31;5.97;;;1.80;;
8626;SDS011;4351;51.422;6.794;2023-12-28T07:01:02;7.23;;;2.00;;
8626;SDS011;4351;51.422;6.794;2023-12-28T07:03:30;5.17;;;1.67;;
8626;SDS011;4351;51.422;6.794;2023-12-28T07:05:59;7.13;;;2.00;;
8626;SDS011;4351;51.422;6.794;2023-12-28T07:08:27;4.83;;;1.80;;
8626;SDS011;4351;51.422;6.794;2023-12-28T07:10:57;4.47;;;2.00;;
8626;SDS011;4351;51.422;6.794;2023-12-28T07:13:26;4.23;;;2.00;;
8626;SDS011;4351;51.422;6.794;2023-12-28T07:15:53;4.07;;;1.77;;
8626;SDS011;4351;51.422;6.794;2023-12-28T07:18:27;5.53;;;2.10;;
8626;SDS011;4351;51.422;6.794;2023-12-28T07:20:55;7.70;;;2.10;;
8626;SDS011;4351;51.422;6.794;2023-12-28T07:23:23;5.87;;;1.70;;
8626;SDS011;4351;51.422;6.794;2023-12-28T07:25:51;5.90;;;1.90;;
8626;SDS011;4351;51.422;6.794;2023-12-28T07:28:19;8.23;;;1.90;;
8626;SDS011;4351;51.422;6.794;2023-12-28T07:30:47;11.77;;;2.87;;
8626;SDS011;4351;51.422;6.794;2023-12-28T07:33:14;5.47;;;1.67;;
8626;SDS011;4351;51.422;6.794;2023-12-28T07:35:44;5.73;;;1.80;;
8626;SDS011;4351;51.422;6.794;2023-12-28T07:38:11;9.60;;;2.00;;
8626;SDS011;4351;51.422;6.794;2023-12-28T07:40:39;5.90;;;1.90;;
8626;SDS011;4351;51.422;6.794;2023-12-28T07:43:07;7.70;;;2.10;;
8626;SDS011;4351;51.422;6.794;2023-12-28T07:45:35;5.13;;;1.70;;
8626;SDS011;4351;51.422;6.794;2023-12-28T07:48:06;5.50;;;1.87;;
8626;SDS011;4351;51.422;6.794;2023-12-28T07:50:34;6.77;;;1.83;;
8626;SDS011;4351;51.422;6.794;2023-12-28T07:53:03;7.33;;;1.87;;
8626;SDS011;4351;51.422;6.794;2023-12-28T07:55:31;7.53;;;1.90;;
8626;SDS011;4351;51.422;6.794;2023-12-28T07:57:58;5.63;;;1.80;;
8626;SDS011;4351;51.422;6.794;2023-12-28T08:00:27;5.33;;;1.60;;
8626;SDS011;4351;51.422;6.794;2023-12-28T08:02:55;8.43;;;1.93;;
8626;SDS011;4351;51.422;6.794;2023-12-28T08:05:23;8.30;;;1.90;;
8626;SDS011;4351;51.422;6.794;2023-12-28T08:07:51;7.00;;;2.20;;
8626;SDS011;4351;51.422;6.794;2023-12-28T08:10:20;8.07;;;2.07;;
8626;SDS011;4351;51.422;6.794;2023-12-28T08:12:48;9.83;;;1.90;;
8626;SDS011;4351;51.422;6.794;2023-12-28T08:15:15;6.93;;;1.77;;
8626;SDS011;4351;51.422;6.794;2023-12-28T08:17:43;6.67;;;1.67;;
8626;SDS011;4351;51.422;6.794;2023-12-28T08:20:11;7.60;;;2.10;;
8626;SDS011;4351;51.422;6.794;2023-12-28T08:22:39;6.47;;;1.90;;
8626;SDS011;4351;51.422;6.794;2023-12-28T08:25:06;6.43;;;2.03;;
8626;SDS011;4351;51.422;6.794;2023-12-28T08:27:36;9.07;;;2.00;;
8626;SDS011;4351;51.422;6.794;2023-12-28T08:30:04;13.73;;;2.07;;
8626;SDS011;4351;51.422;6.794;2023-12-28T08:32:33;7.53;;;1.87;;
8626;SDS011;4351;51.422;6.794;2023-12-28T08:35:01;6.20;;;2.00;;
8626;SDS011;4351;51.422;6.794;2023-12-28T08:37:29;10.07;;;1.93;;
8626;SDS011;4351;51.422;6.794;2023-12-28T08:39:57;6.13;;;1.90;;
8626;SDS011;4351;51.422;6.794;2023-12-28T08:42:25;6.63;;;1.77;;
8626;SDS011;4351;51.422;6.794;2023-12-28T08:44:54;5.43;;;1.63;;
8626;SDS011;4351;51.422;6.794;2023-12-28T08:47:22;5.83;;;2.07;;
8626;SDS011;4351;51.422;6.794;2023-12-28T08:49:50;9.50;;;2.17;;
8626;SDS011;4351;51.422;6.794;2023-12-28T08:52:18;9.57;;;2.00;;
8626;SDS011;4351;51.422;6.794;2023-12-28T08:54:46;8.80;;;1.90;;
8626;SDS011;4351;51.422;6.794;2023-12-28T08:57:14;7.17;;;2.30;;
8626;SDS011;4351;51.422;6.794;2023-12-28T08:59:48;6.70;;;1.70;;
8626;SDS011;4351;51.422;6.794;2023-12-28T09:02:18;7.47;;;1.90;;
8626;SDS011;4351;51.422;6.794;2023-12-28T09:04:45;7.33;;;1.83;;
8626;SDS011;4351;51.422;6.794;2023-12-28T09:07:13;7.70;;;2.00;;
8626;SDS011;4351;51.422;6.794;2023-12-28T09:09:42;8.97;;;1.80;;
8626;SDS011;4351;51.422;6.794;2023-12-28T09:12:10;9.50;;;1.87;;
8626;SDS011;4351;51.422;6.794;2023-12-28T09:14:38;6.17;;;1.97;;
8626;SDS011;4351;51.422;6.794;2023-12-28T09:17:06;9.50;;;2.03;;
8626;SDS011;4351;51.422;6.794;2023-12-28T09:19:35;13.83;;;1.60;;
8626;SDS011;4351;51.422;6.794;2023-12-28T09:22:03;7.80;;;1.80;;
8626;SDS011;4351;51.422;6.794;2023-12-28T09:24:31;8.10;;;2.07;;
8626;SDS011;4351;51.422;6.794;2023-12-28T09:26:59;7.30;;;1.53;;
8626;SDS011;4351;51.422;6.794;2023-12-28T09:29:27;12.83;;;2.20;;
8626;SDS011;4351;51.422;6.794;2023-12-28T09:31:54;7.77;;;1.90;;
8626;SDS011;4351;51.422;6.794;2023-12-28T09:34:22;10.50;;;2.17;;
8626;SDS011;4351;51.422;6.794;2023-12-28T09:36:54;9.23;;;2.40;;
8626;SDS011;4351;51.422;6.794;2023-12-28T09:39:22;11.70;;;2.20;;
8626;SDS011;4351;51.422;6.794;2023-12-28T09:41:53;6.40;;;1.83;;
8626;SDS011;4351;51.422;6.794;2023-12-28T09:44:22;11.23;;;2.27;;
8626;SDS011;4351;51.422;6.794;2023-12-28T09:46:51;11.47;;;2.00;;
8626;SDS011;4351;51.422;6.794;2023-12-28T09:49:20;7.57;;;1.80;;
8626;SDS011;4351;51.422;6.794;2023-12-28T09:51:48;9.93;;;2.33;;
8626;SDS011;4351;51.422;6.794;2023-12-28T09:54:17;7.93;;;2.13;;
8626;SDS011;4351;51.422;6.794;2023-12-28T09:56:46;11.50;;;2.50;;
8626;SDS011;4351;51.422;6.794;2023-12-28T09:59:13;8.50;;;2.00;;
8626;SDS011;4351;51.422;6.794;2023-12-28T10:01:41;10.00;;;2.30;;
8626;SDS011;4351;51.422;6.794;2023-12-28T10:04:10;8.10;;;2.00;;
8626;SDS011;4351;51.422;6.794;2023-12-28T10:06:39;8.83;;;2.07;;
8626;SDS011;4351;51.422;6.794;2023-12-28T10:09:07;12.97;;;2.40;;
8626;SDS011;4351;51.422;6.794;2023-12-28T10:11:36;11.77;;;2.70;;
8626;SDS011;4351;51.422;6.794;2023-12-28T10:14:05;11.53;;;2.00;;
8626;SDS011;4351;51.422;6.794;2023-12-28T10:16:34;8.00;;;2.20;;
8626;SDS011;4351;51.422;6.794;2023-12-28T10:19:02;8.13;;;2.17;;
8626;SDS011;4351;51.422;6.794;2023-12-28T10:21:30;8.70;;;1.90;;
8626;SDS011;4351;51.422;6.794;2023-12-28T10:38:28;7.67;;;1.97;;
8626;SDS011;4351;51.422;6.794;2023-12-28T10:41:00;9.30;;;1.97;;
8626;SDS011;4351;51.422;6.794;2023-12-28T10:43:28;6.10;;;2.00;;
8626;SDS011;4351;51.422;6.794;2023-12-28T10:45:56;7.80;;;1.93;;
8626;SDS011;4351;51.422;6.794;2023-12-28T10:48:26;7.93;;;1.70;;
8626;SDS011;4351;51.422;6.794;2023-12-28T10:50:56;9.93;;;1.90;;
8626;SDS011;4351;51.422;6.794;2023-12-28T10:53:33;13.67;;;2.23;;
8626;SDS011;4351;51.422;6.794;2023-12-28T10:56:15;11.50;;;2.30;;
8626;SDS011;4351;51.422;6.794;2023-12-28T10:58:48;9.43;;;2.03;;
8626;SDS011;4351;51.422;6.794;2023-12-28T11:01:17;8.33;;;2.33;;
8626;SDS011;4351;51.422;6.794;2023-12-28T11:03:46;7.67;;;2.40;;
8626;SDS011;4351;51.422;6.794;2023-12-28T11:06:15;10.40;;;2.40;;
8626;SDS011;4351;51.422;6.794;2023-12-28T11:08:45;10.60;;;2.20;;
8626;SDS011;4351;51.422;6.794;2023-12-28T11:11:16;7.93;;;1.97;;
8626;SDS011;4351;51.422;6.794;2023-12-28T11:13:45;10.53;;;1.90;;
8626;SDS011;4351;51.422;6.794;2023-12-28T11:16:14;8.10;;;1.97;;
8626;SDS011;4351;51.422;6.794;2023-12-28T11:18:41;8.20;;;2.37;;
8626;SDS011;4351;51.422;6.794;2023-12-28T11:21:10;9.47;;;1.93;;
8626;SDS011;4351;51.422;6.794;2023-12-28T11:23:38;9.90;;;2.30;;
8626;SDS011;4351;51.422;6.794;2023-12-28T11:26:16;6.37;;;1.70;;
8626;SDS011;4351;51.422;6.794;2023-12-28T11:28:44;8.27;;;1.80;;
8626;SDS011;4351;51.422;6.794;2023-12-28T11:31:13;7.53;;;2.10;;
8626;SDS011;4351;51.422;6.794;2023-12-28T11:33:44;6.90;;;1.97;;
8626;SDS011;4351;51.422;6.794;2023-12-28T11:36:18;12.53;;;2.07;;
8626;SDS011;4351;51.422;6.794;2023-12-28T11:38:46;8.73;;;2.00;;
8626;SDS011;4351;51.422;6.794;2023-12-28T11:41:17;9.10;;;1.80;;
8626;SDS011;4351;51.422;6.794;2023-12-28T11:43:51;13.20;;;2.17;;
8626;SDS011;4351;51.422;6.794;2023-12-28T11:46:19;16.10;;;2.40;;
8626;SDS011;4351;51.422;6.794;2023-12-28T11:48:47;10.77;;;2.87;;
8626;SDS011;4351;51.422;6.794;2023-12-28T11:51:15;8.37;;;2.20;;
8626;SDS011;4351;51.422;6.794;2023-12-28T11:53:44;10.17;;;2.00;;
8626;SDS011;4351;51.422;6.794;2023-12-28T11:56:14;11.73;;;1.90;;
8626;SDS011;4351;51.422;6.794;2023-12-28T11:58:44;6.53;;;1.77;;
8626;SDS011;4351;51.422;6.794;2023-12-28T12:01:14;11.80;;;2.10;;
8626;SDS011;4351;51.422;6.794;2023-12-28T12:03:42;8.27;;;1.90;;
8626;SDS011;4351;51.422;6.794;2023-12-28T12:06:10;9.70;;;2.47;;
8626;SDS011;4351;51.422;6.794;2023-12-28T12:08:38;12.20;;;2.10;;
8626;SDS011;4351;51.422;6.794;2023-12-28T12:11:06;6.67;;;1.60;;
8626;SDS011;4351;51.422;6.794;2023-12-28T12:13:34;9.03;;;1.80;;
8626;SDS011;4351;51.422;6.794;2023-12-28T12:16:04;9.13;;;1.57;;
8626;SDS011;4351;51.422;6.794;2023-12-28T12:18:33;10.30;;;2.30;;
8626;SDS011;4351;51.422;6.794;2023-12-28T12:21:02;7.93;;;1.80;;
8626;SDS011;4351;51.422;6.794;2023-12-28T12:23:30;8.50;;;1.97;;
8626;SDS011;4351;51.422;6.794;2023-12-28T12:25:58;12.00;;;1.63;;
8626;SDS011;4351;51.422;6.794;2023-12-28T12:28:26;9.47;;;1.90;;
8626;SDS011;4351;51.422;6.794;2023-12-28T12:30:54;9.47;;;2.23;;
8626;SDS011;4351;51.422;6.794;2023-12-28T12:33:24;11.07;;;2.63;;
8626;SDS011;4351;51.422;6.794;2023-12-28T12:35:54;12.27;;;2.33;;
8626;SDS011;4351;51.422;6.794;2023-12-28T12:38:21;9.60;;;2.30;;
8626;SDS011;4351;51.422;6.794;2023-12-28T12:40:50;13.67;;;2.50;;
8626;SDS011;4351;51.422;6.794;2023-12-28T12:43:18;14.10;;;2.07;;
8626;SDS011;4351;51.422;6.794;2023-12-28T12:45:46;9.50;;;2.40;;
8626;SDS011;4351;51.422;6.794;2023-12-28T12:48:15;6.73;;;1.70;;
8626;SDS011;4351;51.422;6.794;2023-12-28T12:50:44;9.50;;;1.97;;
8626;SDS011;4351;51.422;6.794;2023-12-28T12:53:12;6.20;;;1.77;;
8626;SDS011;4351;51.422;6.794;2023-12-28T12:55:40;7.70;;;2.00;;
8626;SDS011;4351;51.422;6.794;2023-12-28T12:58:09;7.17;;;1.70;;
8626;SDS011;4351;51.422;6.794;2023-12-28T13:00:39;10.60;;;2.00;;
8626;SDS011;4351;51.422;6.794;2023-12-28T13:03:07;14.97;;;2.50;;
8626;SDS011;4351;51.422;6.794;2023-12-28T13:05:35;10.53;;;1.87;;
8626;SDS011;4351;51.422;6.794;2023-12-28T13:08:05;6.50;;;1.73;;
8626;SDS011;4351;51.422;6.794;2023-12-28T13:10:33;9.83;;;2.10;;
8626;SDS011;4351;51.422;6.794;2023-12-28T13:13:01;11.97;;;2.13;;
8626;SDS011;4351;51.422;6.794;2023-12-28T13:15:30;11.10;;;2.20;;
8626;SDS011;4351;51.422;6.794;2023-12-28T13:17:58;7.53;;;1.97;;
8626;SDS011;4351;51.422;6.794;2023-12-28T13:20:26;7.50;;;1.87;;
8626;SDS011;4351;51.422;6.794;2023-12-28T13:22:53;9.43;;;2.07;;
8626;SDS011;4351;51.422;6.794;2023-12-28T13:25:23;11.70;;;2.00;;
8626;SDS011;4351;51.422;6.794;2023-12-28T13:27:50;9.47;;;2.13;;
8626;SDS011;4351;51.422;6.794;2023-12-28T13:30:18;11.87;;;2.03;;
8626;SDS011;4351;51.422;6.794;2023-12-28T13:32:48;8.27;;;2.20;;
8626;SDS011;4351;51.422;6.794;2023-12-28T13:35:16;9.40;;;1.80;;
8626;SDS011;4351;51.422;6.794;2023-12-28T13:37:45;11.93;;;2.33;;
8626;SDS011;4351;51.422;6.794;2023-12-28T13:40:13;10.77;;;2.13;;
8626;SDS011;4351;51.422;6.794;2023-12-28T13:42:46;13.23;;;2.20;;
8626;SDS011;4351;51.422;6.794;2023-12-28T13:45:14;9.03;;;1.63;;
8626;SDS011;4351;51.422;6.794;2023-12-28T13:47:42;7.60;;;1.67;;
8626;SDS011;4351;51.422;6.794;2023-12-28T13:50:10;7.57;;;1.70;;
8626;SDS011;4351;51.422;6.794;2023-12-28T13:52:38;9.97;;;1.60;;
8626;SDS011;4351;51.422;6.794;2023-12-28T13:55:06;10.53;;;1.80;;
8626;SDS011;4351;51.422;6.794;2023-12-28T13:57:34;12.03;;;1.83;;
8626;SDS011;4351;51.422;6.794;2023-12-28T14:00:04;9.93;;;1.83;;
8626;SDS011;4351;51.422;6.794;2023-12-28T14:02:40;10.33;;;1.90;;
8626;SDS011;4351;51.422;6.794;2023-12-28T14:05:08;7.57;;;1.93;;
8626;SDS011;4351;51.422;6.794;2023-12-28T14:07:36;8.00;;;2.10;;
8626;SDS011;4351;51.422;6.794;2023-12-28T14:10:04;10.23;;;1.97;;
8626;SDS011;4351;51.422;6.794;2023-12-28T14:12:32;6.03;;;1.80;;
8626;SDS011;4351;51.422;6.794;2023-12-28T14:15:00;9.57;;;2.27;;
8626;SDS011;4351;51.422;6.794;2023-12-28T14:17:30;6.57;;;2.00;;
8626;SDS011;4351;51.422;6.794;2023-12-28T14:19:58;5.47;;;1.70;;
8626;SDS011;4351;51.422;6.794;2023-12-28T14:22:26;7.77;;;1.77;;
8626;SDS011;4351;51.422;6.794;2023-12-28T14:24:55;8.37;;;2.00;;
8626;SDS011;4351;51.422;6.794;2023-12-28T14:27:23;7.57;;;1.60;;
8626;SDS011;4351;51.422;6.794;2023-12-28T14:29:52;7.53;;;1.60;;
8626;SDS011;4351;51.422;6.794;2023-12-28T14:32:23;17.17;;;2.00;;
8626;SDS011;4351;51.422;6.794;2023-12-28T14:34:53;10.00;;;1.90;;
8626;SDS011;4351;51.422;6.794;2023-12-28T14:37:21;7.13;;;1.87;;
8626;SDS011;4351;51.422;6.794;2023-12-28T14:39:49;9.07;;;1.70;;
8626;SDS011;4351;51.422;6.794;2023-12-28T14:42:17;7.40;;;1.83;;
8626;SDS011;4351;51.422;6.794;2023-12-28T14:44:45;9.43;;;1.97;;
8626;SDS011;4351;51.422;6.794;2023-12-28T14:47:14;9.47;;;1.60;;
8626;SDS011;4351;51.422;6.794;2023-12-28T14:49:41;7.13;;;1.63;;
8626;SDS011;4351;51.422;6.794;2023-12-28T14:52:12;10.33;;;1.63;;
8626;SDS011;4351;51.422;6.794;2023-12-28T14:54:40;11.03;;;1.87;;
8626;SDS011;4351;51.422;6.794;2023-12-28T14:57:10;6.03;;;1.77;;
8626;SDS011;4351;51.422;6.794;2023-12-28T14:59:38;5.47;;;1.63;;
8626;SDS011;4351;51.422;6.794;2023-12-28T15:02:06;6.40;;;1.70;;
8626;SDS011;4351;51.422;6.794;2023-12-28T15:04:34;8.97;;;1.67;;
8626;SDS011;4351;51.422;6.794;2023-12-28T15:07:04;7.23;;;1.80;;
8626;SDS011;4351;51.422;6.794;2023-12-28T15:09:34;11.63;;;2.20;;
8626;SDS011;4351;51.422;6.794;2023-12-28T15:12:02;6.90;;;1.60;;
8626;SDS011;4351;51.422;6.794;2023-12-28T15:14:30;8.97;;;1.70;;
8626;SDS011;4351;51.422;6.794;2023-12-28T15:16:58;11.03;;;2.37;;
8626;SDS011;4351;51.422;6.794;2023-12-28T15:19:26;7.80;;;1.80;;
8626;SDS011;4351;51.422;6.794;2023-12-28T15:21:54;10.70;;;1.87;;
8626;SDS011;4351;51.422;6.794;2023-12-28T15:24:23;10.43;;;1.77;;
8626;SDS011;4351;51.422;6.794;2023-12-28T15:26:52;10.47;;;1.60;;
8626;SDS011;4351;51.422;6.794;2023-12-28T15:29:19;9.37;;;1.70;;
8626;SDS011;4351;51.422;6.794;2023-12-28T15:31:47;8.40;;;2.00;;
8626;SDS011;4351;51.422;6.794;2023-12-28T15:34:15;6.17;;;1.73;;